Grande Congo — IBPI — position and weather

sailwx.info

Track history (hours):
 
Tides and Currents Weather Stations Pressure Air Temp Water Temp Dewpoint Dewpoint Depression Visibility Wind Speed Wind Dir Waves Ship Positions

Grande Congo

Last reported at 2017-Dec-12 11:35 UTC. Time now 2017-Dec-18 13:05 UTC.
Position N 40°27' W 073°48'.

Length 211 m; draft 9.2 m.

Type: Cargo ship. MMSI: 247302700.

Date/timePositionNaut miles runAvg speedWind from/ knotsBaromVisibWave heightAir tempDewpointWater temp
2017-Dec-12 11:35N 40°27' W 073°48'1 8.9
2017-Dec-12 11:29N 40°27' W 073°49'4 8.4
2017-Dec-12 11:00N 40°29' W 073°54'611.7
2017-Dec-12 10:30N 40°32' W 074°01'613.0
2017-Dec-12 10:00N 40°38' W 074°03'4 7.2
2017-Dec-12 09:30N 40°39' W 074°08'3 5.4
2017-Dec-12 09:00N 40°38' W 074°11'0 0.0
2017-Dec-12 08:29N 40°38' W 074°11'0 0.0
2017-Dec-12 07:50N 40°38' W 074°11'0 0.0
2017-Dec-12 07:26N 40°38' W 074°11'0 0.0
2017-Dec-12 06:59N 40°38' W 074°11'0 0.0
2017-Dec-12 06:29N 40°38' W 074°11'0 0.0
2017-Dec-12 05:59N 40°38' W 074°11'0 0.0
2017-Dec-12 05:26N 40°38' W 074°11'0 0.0
2017-Dec-12 04:53N 40°38' W 074°11'0 0.0
2017-Dec-12 04:23N 40°38' W 074°11'0 0.0
2017-Dec-12 03:56N 40°38' W 074°11'0 0.0
2017-Dec-12 03:26N 40°38' W 074°11'0 0.0
2017-Dec-12 02:44N 40°38' W 074°11'0 0.0
2017-Dec-12 02:26N 40°38' W 074°11'0 0.0
2017-Dec-12 01:56N 40°38' W 074°11'0 0.0
2017-Dec-12 00:17N 40°38' W 074°11'0 0.0
2017-Dec-11 23:56N 40°38' W 074°11'0 0.0
2017-Dec-11 23:26N 40°38' W 074°11'0 0.0
2017-Dec-11 22:26N 40°38' W 074°11'0 0.0
2017-Dec-11 21:53N 40°38' W 074°11'0 0.0
2017-Dec-11 21:23N 40°38' W 074°11'0 0.0
2017-Dec-11 20:59N 40°38' W 074°11'0 0.0
2017-Dec-11 20:23N 40°38' W 074°11'0 0.0
2017-Dec-11 19:35N 40°38' W 074°11'0 0.0
2017-Dec-11 19:26N 40°38' W 074°11'0 0.0
2017-Dec-11 18:53N 40°38' W 074°11'0 0.0
2017-Dec-11 18:29N 40°38' W 074°11'0 0.0
2017-Dec-11 17:56N 40°38' W 074°11'0 0.0
2017-Dec-11 17:29N 40°38' W 074°11'0 0.0
2017-Dec-11 16:56N 40°38' W 074°11'0 0.0
2017-Dec-11 16:20N 40°38' W 074°11'0 0.0
2017-Dec-11 15:59N 40°38' W 074°11'0 0.0
2017-Dec-11 14:47N 40°38' W 074°11'0 0.0
2017-Dec-11 14:29N 40°38' W 074°11'0 0.0
2017-Dec-11 13:59N 40°38' W 074°11'0 0.0
2017-Dec-11 13:29N 40°38' W 074°11'0 0.0
2017-Dec-11 12:29N 40°38' W 074°11'0 0.0
2017-Dec-11 11:59N 40°38' W 074°11'0 0.0
2017-Dec-11 11:30N 40°38' W 074°11'1 2.4
2017-Dec-11 11:00N 40°39' W 074°10'1 2.1
2017-Dec-11 10:30N 40°39' W 074°09'3 5.7
2017-Dec-11 10:00N 40°39' W 074°05'4 8.7
2017-Dec-11 09:30N 40°35' W 074°02'612.4
2017-Dec-11 09:00N 40°30' W 073°57'510.1
2017-Dec-11 08:29N 40°28' W 073°51'4 7.6
2017-Dec-11 08:01N 40°26' W 073°47'3 5.7
2017-Dec-11 07:29N 40°23' W 073°47'4 7.4
2017-Dec-11 06:58N 40°19' W 073°46'231 6.4
2017-Dec-09 18:51N 36°48' W 075°44'6 9.8
2017-Dec-09 18:12N 36°51' W 075°51'2 9.6
2017-Dec-09 18:01N 36°52' W 075°53'5 9.8
2017-Dec-09 17:30N 36°56' W 075°58'5 9.6
2017-Dec-09 17:00N 36°60' W 076°01'1114.5
2017-Dec-09 16:15N 37°09' W 076°09'8416.4
2017-Dec-09 11:08N 38°32' W 076°25'616.6
2017-Dec-09 10:46N 38°38' W 076°25'417.0
2017-Dec-09 10:30N 38°42' W 076°26'917.1
2017-Dec-09 10:00N 38°51' W 076°24'916.4
2017-Dec-09 09:29N 38°59' W 076°23'613.3
2017-Dec-09 09:00N 39°06' W 076°24'612.7
2017-Dec-09 08:31N 39°11' W 076°28'4 8.9
2017-Dec-09 08:00N 39°14' W 076°32'1 1.9
2017-Dec-09 07:29N 39°15' W 076°31'0 0.0
2017-Dec-09 06:59N 39°15' W 076°31'0 0.0
2017-Dec-09 06:29N 39°15' W 076°31'0 0.0
2017-Dec-09 05:59N 39°15' W 076°31'0 0.0
2017-Dec-09 05:29N 39°14' W 076°31'0 0.0
2017-Dec-09 04:59N 39°15' W 076°31'0 0.0
2017-Dec-09 04:29N 39°15' W 076°31'0 0.0
2017-Dec-09 03:59N 39°15' W 076°31'0 0.0
2017-Dec-09 03:29N 39°15' W 076°31'0 0.0
2017-Dec-09 02:59N 39°14' W 076°31'0 0.0
2017-Dec-09 02:29N 39°14' W 076°31'0 0.0
2017-Dec-09 01:59N 39°14' W 076°31'0 0.0
2017-Dec-09 01:29N 39°15' W 076°31'0 0.0
2017-Dec-09 00:59N 39°15' W 076°31'0 0.0
2017-Dec-09 00:29N 39°15' W 076°31'0 0.0
2017-Dec-08 23:59N 39°15' W 076°31'0 0.0
2017-Dec-08 23:28N 39°14' W 076°31'0 0.0
2017-Dec-08 22:58N 39°14' W 076°31'0 0.0
2017-Dec-08 22:28N 39°15' W 076°31'0 0.0
2017-Dec-08 21:59N 39°15' W 076°31'0 0.0
2017-Dec-08 21:28N 39°14' W 076°31'0 0.0
2017-Dec-08 20:52N 39°14' W 076°31'0 0.0
2017-Dec-08 20:29N 39°14' W 076°31'0 0.0
2017-Dec-08 19:59N 39°15' W 076°31'0 0.0
2017-Dec-08 19:29N 39°15' W 076°31'0 0.0
2017-Dec-08 18:59N 39°15' W 076°31'0 0.0
2017-Dec-08 18:29N 39°15' W 076°31'0 0.0
2017-Dec-08 17:59N 39°14' W 076°31'0 0.0
2017-Dec-08 17:28N 39°14' W 076°31'0 0.0
2017-Dec-08 16:52N 39°15' W 076°31'0 0.0
2017-Dec-08 16:28N 39°15' W 076°31'0 0.0
2017-Dec-08 15:58N 39°15' W 076°31'0 0.0
2017-Dec-08 15:28N 39°15' W 076°31'0 0.0
2017-Dec-08 14:59N 39°14' W 076°31'0 0.0
2017-Dec-08 14:29N 39°14' W 076°31'0 0.0
2017-Dec-08 13:58N 39°15' W 076°31'0 0.0
2017-Dec-08 13:28N 39°15' W 076°31'0 0.0
2017-Dec-08 12:58N 39°15' W 076°31'0 0.0
2017-Dec-08 12:28N 39°15' W 076°31'0 0.0
2017-Dec-08 11:58N 39°14' W 076°31'0 0.0
2017-Dec-08 11:28N 39°15' W 076°31'0 0.0
2017-Dec-08 10:58N 39°15' W 076°31'0 0.0
2017-Dec-08 10:28N 39°15' W 076°31'0 0.0
2017-Dec-08 09:59N 39°15' W 076°31'0 0.0
2017-Dec-08 09:28N 39°15' W 076°31'0 0.0
2017-Dec-08 08:58N 39°14' W 076°31'0 0.0
2017-Dec-08 08:28N 39°15' W 076°31'0 0.0
2017-Dec-08 07:58N 39°15' W 076°31'0 0.0
2017-Dec-08 07:29N 39°15' W 076°31'0 0.0
2017-Dec-08 06:59N 39°15' W 076°31'0 0.9
2017-Dec-08 06:30N 39°14' W 076°32'1 1.7
2017-Dec-08 06:00N 39°13' W 076°32'4 7.6
2017-Dec-08 05:30N 39°11' W 076°28'612.4
2017-Dec-08 05:00N 39°06' W 076°24'713.1
2017-Dec-08 04:27N 38°59' W 076°23'715.2
2017-Dec-08 04:00N 38°52' W 076°24'5116.9
2017-Dec-08 01:00N 38°02' W 076°13'5415.7
2017-Dec-07 21:34N 37°08' W 076°09'216.7
2017-Dec-07 21:27N 37°07' W 076°07'715.7
2017-Dec-07 21:00N 37°01' W 076°03'611.6
2017-Dec-07 20:30N 36°57' W 075°57'4 8.7
2017-Dec-07 20:00N 36°54' W 075°53'  
2017-Dec-03 15:53N 28°35' W 093°28'1115.1
2017-Dec-03 15:11N 28°41' W 093°37'514.8
2017-Dec-03 14:50N 28°44' W 093°42'615.1
2017-Dec-03 14:25N 28°47' W 093°48'4812.9
2017-Dec-03 10:42N 29°14' W 094°34'314.2
2017-Dec-03 10:31N 29°16' W 094°36'713.5
2017-Dec-03 10:00N 29°21' W 094°42'510.2
2017-Dec-03 09:30N 29°19' W 094°47'1 0.9
2017-Dec-03 08:05N 29°19' W 094°49'0 0.0
2017-Dec-03 07:59N 29°19' W 094°49'0 0.0
2017-Dec-03 07:26N 29°19' W 094°49'0 0.0
2017-Dec-03 06:47N 29°19' W 094°49'0 0.0
2017-Dec-03 06:14N 29°19' W 094°49'0 0.0
2017-Dec-03 05:41N 29°19' W 094°49'0 0.0
2017-Dec-03 05:26N 29°19' W 094°49'0 0.0
2017-Dec-03 04:59N 29°19' W 094°49'0 0.0
2017-Dec-03 04:29N 29°19' W 094°49'0 0.0
2017-Dec-03 03:50N 29°19' W 094°49'0 0.0
2017-Dec-03 03:11N 29°19' W 094°49'0 0.0
2017-Dec-03 02:56N 29°19' W 094°49'0 0.0
2017-Dec-03 02:11N 29°19' W 094°49'0 0.0
2017-Dec-03 01:41N 29°19' W 094°49'0 0.0
2017-Dec-03 01:29N 29°19' W 094°49'0 0.0
2017-Dec-03 00:53N 29°19' W 094°49'0 0.0
2017-Dec-03 00:23N 29°19' W 094°49'0 0.0
2017-Dec-02 23:53N 29°19' W 094°49'  
Track history (hours):
 
Tides and Currents Weather Stations Pressure Air Temp Water Temp Dewpoint Dewpoint Depression Visibility Wind Speed Wind Dir Waves Ship Positions

Grande Congo

Last reported at 2017-Dec-12 11:35 UTC. Time now 2017-Dec-18 13:05 UTC.
Position N 40°27' W 073°48'.

Length 211 m; draft 9.2 m.

Type: Cargo ship. MMSI: 247302700.

Date/timePositionNaut miles runAvg speedWind from/ knotsBaromVisibWave heightAir tempDewpointWater temp
2017-Dec-12 11:35N 40°27' W 073°48'1 8.9
2017-Dec-12 11:29N 40°27' W 073°49'4 8.4
2017-Dec-12 11:00N 40°29' W 073°54'611.7
2017-Dec-12 10:30N 40°32' W 074°01'613.0
2017-Dec-12 10:00N 40°38' W 074°03'4 7.2
2017-Dec-12 09:30N 40°39' W 074°08'3 5.4
2017-Dec-12 09:00N 40°38' W 074°11'0 0.0
2017-Dec-12 08:29N 40°38' W 074°11'0 0.0
2017-Dec-12 07:50N 40°38' W 074°11'0 0.0
2017-Dec-12 07:26N 40°38' W 074°11'0 0.0
2017-Dec-12 06:59N 40°38' W 074°11'0 0.0
2017-Dec-12 06:29N 40°38' W 074°11'0 0.0
2017-Dec-12 05:59N 40°38' W 074°11'0 0.0
2017-Dec-12 05:26N 40°38' W 074°11'0 0.0
2017-Dec-12 04:53N 40°38' W 074°11'0 0.0
2017-Dec-12 04:23N 40°38' W 074°11'0 0.0
2017-Dec-12 03:56N 40°38' W 074°11'0 0.0
2017-Dec-12 03:26N 40°38' W 074°11'0 0.0
2017-Dec-12 02:44N 40°38' W 074°11'0 0.0
2017-Dec-12 02:26N 40°38' W 074°11'0 0.0
2017-Dec-12 01:56N 40°38' W 074°11'0 0.0
2017-Dec-12 00:17N 40°38' W 074°11'0 0.0
2017-Dec-11 23:56N 40°38' W 074°11'0 0.0
2017-Dec-11 23:26N 40°38' W 074°11'0 0.0
2017-Dec-11 22:26N 40°38' W 074°11'0 0.0
2017-Dec-11 21:53N 40°38' W 074°11'0 0.0
2017-Dec-11 21:23N 40°38' W 074°11'0 0.0
2017-Dec-11 20:59N 40°38' W 074°11'0 0.0
2017-Dec-11 20:23N 40°38' W 074°11'0 0.0
2017-Dec-11 19:35N 40°38' W 074°11'0 0.0
2017-Dec-11 19:26N 40°38' W 074°11'0 0.0
2017-Dec-11 18:53N 40°38' W 074°11'0 0.0
2017-Dec-11 18:29N 40°38' W 074°11'0 0.0
2017-Dec-11 17:56N 40°38' W 074°11'0 0.0
2017-Dec-11 17:29N 40°38' W 074°11'0 0.0
2017-Dec-11 16:56N 40°38' W 074°11'0 0.0
2017-Dec-11 16:20N 40°38' W 074°11'0 0.0
2017-Dec-11 15:59N 40°38' W 074°11'0 0.0
2017-Dec-11 14:47N 40°38' W 074°11'0 0.0
2017-Dec-11 14:29N 40°38' W 074°11'0 0.0
2017-Dec-11 13:59N 40°38' W 074°11'0 0.0
2017-Dec-11 13:29N 40°38' W 074°11'0 0.0
2017-Dec-11 12:29N 40°38' W 074°11'0 0.0
2017-Dec-11 11:59N 40°38' W 074°11'0 0.0
2017-Dec-11 11:30N 40°38' W 074°11'1 2.4
2017-Dec-11 11:00N 40°39' W 074°10'1 2.1
2017-Dec-11 10:30N 40°39' W 074°09'3 5.7
2017-Dec-11 10:00N 40°39' W 074°05'4 8.7
2017-Dec-11 09:30N 40°35' W 074°02'612.4
2017-Dec-11 09:00N 40°30' W 073°57'510.1
2017-Dec-11 08:29N 40°28' W 073°51'4 7.6
2017-Dec-11 08:01N 40°26' W 073°47'3 5.7
2017-Dec-11 07:29N 40°23' W 073°47'4 7.4
2017-Dec-11 06:58N 40°19' W 073°46'231 6.4
2017-Dec-09 18:51N 36°48' W 075°44'6 9.8
2017-Dec-09 18:12N 36°51' W 075°51'2 9.6
2017-Dec-09 18:01N 36°52' W 075°53'5 9.8
2017-Dec-09 17:30N 36°56' W 075°58'5 9.6
2017-Dec-09 17:00N 36°60' W 076°01'1114.5
2017-Dec-09 16:15N 37°09' W 076°09'8416.4
2017-Dec-09 11:08N 38°32' W 076°25'616.6
2017-Dec-09 10:46N 38°38' W 076°25'417.0
2017-Dec-09 10:30N 38°42' W 076°26'917.1
2017-Dec-09 10:00N 38°51' W 076°24'916.4
2017-Dec-09 09:29N 38°59' W 076°23'613.3
2017-Dec-09 09:00N 39°06' W 076°24'612.7
2017-Dec-09 08:31N 39°11' W 076°28'4 8.9
2017-Dec-09 08:00N 39°14' W 076°32'1 1.9
2017-Dec-09 07:29N 39°15' W 076°31'0 0.0
2017-Dec-09 06:59N 39°15' W 076°31'0 0.0
2017-Dec-09 06:29N 39°15' W 076°31'0 0.0
2017-Dec-09 05:59N 39°15' W 076°31'0 0.0
2017-Dec-09 05:29N 39°14' W 076°31'0 0.0
2017-Dec-09 04:59N 39°15' W 076°31'0 0.0
2017-Dec-09 04:29N 39°15' W 076°31'0 0.0
2017-Dec-09 03:59N 39°15' W 076°31'0 0.0
2017-Dec-09 03:29N 39°15' W 076°31'0 0.0
2017-Dec-09 02:59N 39°14' W 076°31'0 0.0
2017-Dec-09 02:29N 39°14' W 076°31'0 0.0
2017-Dec-09 01:59N 39°14' W 076°31'0 0.0
2017-Dec-09 01:29N 39°15' W 076°31'0 0.0
2017-Dec-09 00:59N 39°15' W 076°31'0 0.0
2017-Dec-09 00:29N 39°15' W 076°31'0 0.0
2017-Dec-08 23:59N 39°15' W 076°31'0 0.0
2017-Dec-08 23:28N 39°14' W 076°31'0 0.0
2017-Dec-08 22:58N 39°14' W 076°31'0 0.0
2017-Dec-08 22:28N 39°15' W 076°31'0 0.0
2017-Dec-08 21:59N 39°15' W 076°31'0 0.0
2017-Dec-08 21:28N 39°14' W 076°31'0 0.0
2017-Dec-08 20:52N 39°14' W 076°31'0 0.0
2017-Dec-08 20:29N 39°14' W 076°31'0 0.0
2017-Dec-08 19:59N 39°15' W 076°31'0 0.0
2017-Dec-08 19:29N 39°15' W 076°31'0 0.0
2017-Dec-08 18:59N 39°15' W 076°31'0 0.0
2017-Dec-08 18:29N 39°15' W 076°31'0 0.0
2017-Dec-08 17:59N 39°14' W 076°31'0 0.0
2017-Dec-08 17:28N 39°14' W 076°31'0 0.0
2017-Dec-08 16:52N 39°15' W 076°31'0 0.0
2017-Dec-08 16:28N 39°15' W 076°31'0 0.0
2017-Dec-08 15:58N 39°15' W 076°31'0 0.0
2017-Dec-08 15:28N 39°15' W 076°31'0 0.0
2017-Dec-08 14:59N 39°14' W 076°31'0 0.0
2017-Dec-08 14:29N 39°14' W 076°31'0 0.0
2017-Dec-08 13:58N 39°15' W 076°31'0 0.0
2017-Dec-08 13:28N 39°15' W 076°31'0 0.0
2017-Dec-08 12:58N 39°15' W 076°31'0 0.0
2017-Dec-08 12:28N 39°15' W 076°31'0 0.0
2017-Dec-08 11:58N 39°14' W 076°31'0 0.0
2017-Dec-08 11:28N 39°15' W 076°31'0 0.0
2017-Dec-08 10:58N 39°15' W 076°31'0 0.0
2017-Dec-08 10:28N 39°15' W 076°31'0 0.0
2017-Dec-08 09:59N 39°15' W 076°31'0 0.0
2017-Dec-08 09:28N 39°15' W 076°31'0 0.0
2017-Dec-08 08:58N 39°14' W 076°31'0 0.0
2017-Dec-08 08:28N 39°15' W 076°31'0 0.0
2017-Dec-08 07:58N 39°15' W 076°31'0 0.0
2017-Dec-08 07:29N 39°15' W 076°31'0 0.0
2017-Dec-08 06:59N 39°15' W 076°31'0 0.9
2017-Dec-08 06:30N 39°14' W 076°32'1 1.7
2017-Dec-08 06:00N 39°13' W 076°32'4 7.6
2017-Dec-08 05:30N 39°11' W 076°28'612.4
2017-Dec-08 05:00N 39°06' W 076°24'713.1
2017-Dec-08 04:27N 38°59' W 076°23'715.2
2017-Dec-08 04:00N 38°52' W 076°24'5116.9
2017-Dec-08 01:00N 38°02' W 076°13'5415.7
2017-Dec-07 21:34N 37°08' W 076°09'216.7
2017-Dec-07 21:27N 37°07' W 076°07'715.7
2017-Dec-07 21:00N 37°01' W 076°03'611.6
2017-Dec-07 20:30N 36°57' W 075°57'4 8.7
2017-Dec-07 20:00N 36°54' W 075°53'  
2017-Dec-03 15:53N 28°35' W 093°28'1115.1
2017-Dec-03 15:11N 28°41' W 093°37'514.8
2017-Dec-03 14:50N 28°44' W 093°42'615.1
2017-Dec-03 14:25N 28°47' W 093°48'4812.9
2017-Dec-03 10:42N 29°14' W 094°34'314.2
2017-Dec-03 10:31N 29°16' W 094°36'713.5
2017-Dec-03 10:00N 29°21' W 094°42'510.2
2017-Dec-03 09:30N 29°19' W 094°47'1 0.9
2017-Dec-03 08:05N 29°19' W 094°49'0 0.0
2017-Dec-03 07:59N 29°19' W 094°49'0 0.0
2017-Dec-03 07:26N 29°19' W 094°49'0 0.0
2017-Dec-03 06:47N 29°19' W 094°49'0 0.0
2017-Dec-03 06:14N 29°19' W 094°49'0 0.0
2017-Dec-03 05:41N 29°19' W 094°49'0 0.0
2017-Dec-03 05:26N 29°19' W 094°49'0 0.0
2017-Dec-03 04:59N 29°19' W 094°49'0 0.0
2017-Dec-03 04:29N 29°19' W 094°49'0 0.0
2017-Dec-03 03:50N 29°19' W 094°49'0 0.0
2017-Dec-03 03:11N 29°19' W 094°49'0 0.0
2017-Dec-03 02:56N 29°19' W 094°49'0 0.0
2017-Dec-03 02:11N 29°19' W 094°49'0 0.0
2017-Dec-03 01:41N 29°19' W 094°49'0 0.0
2017-Dec-03 01:29N 29°19' W 094°49'0 0.0
2017-Dec-03 00:53N 29°19' W 094°49'0 0.0
2017-Dec-03 00:23N 29°19' W 094°49'0 0.0
2017-Dec-02 23:53N 29°19' W 094°49'  

Dump ship's entire track history